Time;durP1;ratioP1;P1;durP2;ratioP2;P2;SDS_P1;SDS_P2;PMS_P1;PMS_P2;Temp;Humidity;BMP_temperature;BMP_pressure;BME280_temperature;BME280_humidity;BME280_pressure;Samples;Min_cycle;Max_cycle;Signal;HPM_P1;HPM_P2
2022/05/27 00:00:14;;;;;;;8.07;6.07;;;18.10;89.20;;;;;;4992912;28;20034;-66
2022/05/27 00:02:39;;;;;;;8.23;5.65;;;18.00;89.90;;;;;;4993391;28;20130;-67
2022/05/27 00:05:05;;;;;;;6.75;5.03;;;18.00;90.40;;;;;;4993067;28;20117;-66
2022/05/27 00:07:30;;;;;;;8.52;6.57;;;17.90;90.60;;;;;;4993190;28;20022;-66
2022/05/27 00:09:56;;;;;;;9.95;5.97;;;17.90;90.90;;;;;;4998305;28;20042;-66
2022/05/27 00:12:21;;;;;;;11.57;6.95;;;17.90;91.20;;;;;;5011991;28;20393;-65
2022/05/27 00:14:47;;;;;;;9.48;7.03;;;17.80;91.60;;;;;;5005665;28;20025;-66
2022/05/27 00:17:12;;;;;;;8.52;6.30;;;17.80;91.80;;;;;;5010925;28;20022;-66
2022/05/27 00:19:38;;;;;;;10.13;6.85;;;17.80;92.10;;;;;;5008567;28;20390;-66
2022/05/27 00:22:03;;;;;;;11.07;7.18;;;17.80;92.30;;;;;;4991734;28;20026;-66
2022/05/27 00:24:29;;;;;;;9.73;6.85;;;17.70;92.50;;;;;;4993683;28;20045;-65
2022/05/27 00:26:54;;;;;;;10.82;7.22;;;17.70;92.70;;;;;;4997355;28;20161;-66
2022/05/27 00:29:20;;;;;;;10.35;6.70;;;17.70;92.90;;;;;;5006281;28;20022;-66
2022/05/27 00:31:45;;;;;;;7.90;6.30;;;17.70;93.00;;;;;;5012259;28;20021;-66
2022/05/27 00:34:13;;;;;;;9.48;6.50;;;17.70;93.20;;;;;;5011572;28;20088;-66
2022/05/27 00:36:39;;;;;;;7.80;6.28;;;17.60;93.40;;;;;;4992682;28;20030;-66
2022/05/27 00:39:05;;;;;;;7.70;6.32;;;17.60;93.60;;;;;;4992674;28;20037;-66
2022/05/27 00:41:30;;;;;;;8.48;6.38;;;17.60;93.90;;;;;;4992525;28;20128;-66
2022/05/27 00:43:56;;;;;;;9.38;5.78;;;17.60;94.00;;;;;;5008805;28;20029;-65
2022/05/27 00:46:27;;;;;;;8.07;5.57;;;17.60;94.20;;;;;;5010577;28;20042;-65
2022/05/27 00:48:55;;;;;;;8.27;5.40;;;17.50;94.40;;;;;;5012090;28;20033;-67
2022/05/27 00:51:25;;;;;;;7.22;5.45;;;17.60;94.60;;;;;;5009861;28;20473;-66
2022/05/27 00:54:04;;;;;;;7.25;5.38;;;17.60;94.70;;;;;;5010973;28;20042;-67
2022/05/27 00:56:34;;;;;;;5.88;4.55;;;17.60;94.90;;;;;;4993345;28;20042;-66
2022/05/27 00:59:04;;;;;;;5.97;4.18;;;17.50;95.10;;;;;;5000359;28;20029;-66
2022/05/27 01:01:30;;;;;;;5.80;5.05;;;17.50;95.20;;;;;;4993137;28;20038;-66
2022/05/27 01:03:56;;;;;;;7.10;4.28;;;17.50;95.30;;;;;;4992540;28;20021;-66
2022/05/27 01:06:22;;;;;;;6.90;4.97;;;17.50;95.50;;;;;;5009146;28;20120;-65
2022/05/27 01:08:48;;;;;;;5.90;4.43;;;17.50;95.60;;;;;;5011627;28;20185;-66
2022/05/27 01:11:16;;;;;;;5.85;4.35;;;17.50;95.70;;;;;;5009362;28;20036;-65
2022/05/27 01:14:03;;;;;;;5.35;4.38;;;17.50;95.90;;;;;;5010488;28;20338;-65
2022/05/27 01:16:38;;;;;;;6.20;5.18;;;17.50;96.00;;;;;;5009831;28;20076;-66
2022/05/27 01:22:58;;;;;;;5.97;5.05;;;17.50;96.00;;;;;;5011597;28;20456;-66
2022/05/27 01:25:53;;;;;;;7.05;5.25;;;17.50;96.10;;;;;;5004035;28;20038;-66
2022/05/27 01:29:03;;;;;;;7.35;6.13;;;17.50;96.20;;;;;;4998070;28;20494;-66
2022/05/27 01:31:48;;;;;;;7.13;5.78;;;17.50;96.30;;;;;;5010017;28;20045;-66
2022/05/27 01:34:14;;;;;;;8.25;5.88;;;17.50;96.50;;;;;;5010632;28;20362;-66
2022/05/27 01:36:39;;;;;;;6.43;5.65;;;17.50;96.50;;;;;;5006122;28;20034;-65
2022/05/27 01:39:29;;;;;;;7.13;6.10;;;17.50;96.60;;;;;;4991699;28;20433;-66
2022/05/27 01:42:13;;;;;;;7.63;6.10;;;17.50;96.70;;;;;;5000303;28;20030;-66
2022/05/27 01:45:00;;;;;;;8.52;6.57;;;17.50;96.70;;;;;;5006486;28;20065;-65
2022/05/27 01:47:56;;;;;;;9.15;5.68;;;17.50;96.70;;;;;;4991907;28;20027;-66
2022/05/27 01:50:44;;;;;;;8.48;7.18;;;17.50;96.70;;;;;;4997569;28;20030;-67
2022/05/27 01:53:23;;;;;;;10.02;6.80;;;17.50;96.80;;;;;;5005520;28;20112;-67
2022/05/27 01:55:58;;;;;;;7.63;6.00;;;17.50;96.90;;;;;;4991738;28;20026;-66
2022/05/27 01:58:34;;;;;;;7.40;6.40;;;17.50;96.90;;;;;;4995977;28;20042;-67
2022/05/27 02:00:59;;;;;;;6.88;6.03;;;17.50;97.00;;;;;;5011385;28;20037;-66
2022/05/27 02:03:33;;;;;;;8.90;7.53;;;17.50;97.10;;;;;;5008301;28;20389;-66
2022/05/27 02:06:10;;;;;;;8.38;6.68;;;17.60;97.20;;;;;;5010912;28;20045;-66
2022/05/27 02:08:50;;;;;;;8.45;6.50;;;17.50;97.20;;;;;;5009358;28;20054;-66
2022/05/27 02:11:19;;;;;;;8.27;6.35;;;17.60;97.20;;;;;;5010956;28;20057;-66
2022/05/27 02:13:59;;;;;;;10.35;6.65;;;17.60;97.20;;;;;;5009761;28;20119;-66
2022/05/27 02:16:40;;;;;;;10.07;7.10;;;17.60;97.20;;;;;;4991178;28;20130;-66
2022/05/27 02:19:14;;;;;;;9.02;7.13;;;17.60;97.20;;;;;;5003911;28;20085;-65
2022/05/27 02:22:02;;;;;;;11.32;7.55;;;17.60;97.30;;;;;;5011626;28;20061;-66
2022/05/27 02:24:36;;;;;;;9.13;7.35;;;17.60;97.20;;;;;;5012847;28;20425;-65
2022/05/27 02:27:11;;;;;;;8.50;6.60;;;17.60;97.30;;;;;;5014653;28;20041;-66
2022/05/27 02:29:37;;;;;;;;;;;17.60;97.30;;;;;;5000824;28;20437;-66
2022/05/27 02:32:23;;;;;;;8.65;6.90;;;17.60;96.80;;;;;;5006778;28;19913;-66
2022/05/27 02:35:09;;;;;;;8.30;6.88;;;17.60;97.10;;;;;;5012870;28;20437;-65
2022/05/27 02:37:55;;;;;;;7.72;6.45;;;17.50;97.20;;;;;;5012785;28;20022;-66
2022/05/27 02:40:44;;;;;;;8.07;7.03;;;17.60;97.20;;;;;;5013339;28;20523;-66
2022/05/27 02:43:30;;;;;;;7.90;6.47;;;17.50;97.20;;;;;;5012175;28;20018;-66
2022/05/27 02:46:25;;;;;;;8.18;5.85;;;17.50;97.20;;;;;;5013360;28;20437;-66
2022/05/27 02:49:02;;;;;;;6.85;5.50;;;17.50;97.20;;;;;;5003589;28;20035;-66
2022/05/27 02:51:47;;;;;;;7.78;6.07;;;17.50;97.20;;;;;;5007291;28;20397;-66
2022/05/27 02:54:39;;;;;;;7.75;5.60;;;17.50;97.20;;;;;;5013180;28;20026;-66
2022/05/27 02:57:16;;;;;;;8.00;5.95;;;17.50;97.20;;;;;;5013889;28;20398;-66
2022/05/27 02:59:42;;;;;;;7.40;6.10;;;17.50;97.30;;;;;;5011271;28;20038;-67
2022/05/27 03:02:11;;;;;;;6.43;5.72;;;17.50;97.30;;;;;;5014047;28;20377;-67
2022/05/27 03:04:43;;;;;;;9.50;5.55;;;17.50;97.40;;;;;;5012645;28;20126;-66
2022/05/27 03:07:56;;;;;;;7.30;5.65;;;17.40;97.40;;;;;;5013025;28;20057;-67
2022/05/27 03:10:39;;;;;;;7.18;4.68;;;17.50;97.40;;;;;;5012063;28;20477;-66
2022/05/27 03:13:18;;;;;;;6.47;4.97;;;17.50;97.40;;;;;;5012554;28;20513;-67
2022/05/27 03:16:19;;;;;;;5.70;5.07;;;17.40;97.40;;;;;;4997155;28;20041;-65
2022/05/27 03:19:16;;;;;;;6.93;5.30;;;17.50;97.40;;;;;;5002822;28;20485;-66
2022/05/27 03:22:25;;;;;;;5.95;5.35;;;17.50;97.40;;;;;;5013575;28;20030;-66
2022/05/27 03:25:10;;;;;;;6.50;5.22;;;17.50;97.30;;;;;;5011655;28;20125;-67
2022/05/27 03:27:43;;;;;;;8.65;6.05;;;17.50;97.30;;;;;;5012282;28;20436;-67
2022/05/27 03:30:22;;;;;;;8.45;5.57;;;17.50;97.40;;;;;;5005857;28;20029;-66
2022/05/27 03:33:03;;;;;;;7.88;5.65;;;17.40;97.40;;;;;;5010908;28;20046;-66
2022/05/27 03:35:43;;;;;;;7.10;5.38;;;17.50;97.30;;;;;;5013629;28;20030;-67
2022/05/27 03:38:59;;;;;;;7.70;5.68;;;17.50;97.40;;;;;;5012333;28;20038;-67
2022/05/27 03:41:45;;;;;;;8.40;5.78;;;17.50;97.30;;;;;;4988363;28;20033;-66
2022/05/27 03:44:15;;;;;;;8.95;5.85;;;17.50;97.40;;;;;;5005754;28;20390;-65
2022/05/27 03:46:40;;;;;;;7.38;5.93;;;17.50;97.40;;;;;;5013173;28;20034;-66
2022/05/27 03:49:06;;;;;;;13.18;6.15;;;17.50;97.40;;;;;;5011316;28;20033;-66
2022/05/27 03:51:36;;;;;;;7.90;6.07;;;17.50;97.40;;;;;;5013083;28;20033;-67
2022/05/27 03:54:03;;;;;;;10.15;5.93;;;17.50;97.40;;;;;;5009451;28;20068;-67
2022/05/27 03:56:31;;;;;;;7.60;6.80;;;17.50;97.40;;;;;;5012811;28;20026;-66
2022/05/27 03:58:57;;;;;;;8.38;6.70;;;17.50;97.50;;;;;;5005786;28;20041;-66
2022/05/27 04:01:25;;;;;;;9.13;6.18;;;17.40;97.50;;;;;;5013008;28;20113;-66
2022/05/27 04:03:51;;;;;;;8.90;6.18;;;17.40;97.60;;;;;;5010087;28;20081;-65
2022/05/27 04:06:16;;;;;;;9.40;6.70;;;17.40;97.60;;;;;;5012729;28;20048;-66
2022/05/27 04:08:42;;;;;;;8.40;6.78;;;17.50;97.60;;;;;;5011082;28;20125;-67
2022/05/27 04:11:07;;;;;;;7.82;6.45;;;17.50;97.60;;;;;;5011835;28;20041;-66
2022/05/27 04:13:33;;;;;;;9.45;6.32;;;17.40;97.50;;;;;;5011924;28;20033;-66
2022/05/27 04:15:58;;;;;;;7.60;5.68;;;17.40;97.60;;;;;;5011469;28;20148;-66
2022/05/27 04:18:24;;;;;;;8.50;6.47;;;17.50;97.60;;;;;;5004998;28;20022;-66
2022/05/27 04:20:49;;;;;;;8.38;6.47;;;17.50;97.60;;;;;;4992843;28;20382;-67
2022/05/27 04:23:14;;;;;;;9.70;7.13;;;17.50;97.60;;;;;;4997133;28;20014;-66
2022/05/27 04:25:40;;;;;;;7.78;5.53;;;17.40;97.80;;;;;;5012342;28;20029;-66
2022/05/27 04:28:06;;;;;;;9.93;7.45;;;17.50;97.60;;;;;;5005098;28;20385;-66
2022/05/27 04:30:31;;;;;;;7.18;5.70;;;17.40;97.60;;;;;;5010270;28;20033;-66
2022/05/27 04:32:57;;;;;;;11.20;6.10;;;17.40;97.60;;;;;;5009862;28;20485;-66
2022/05/27 04:35:22;;;;;;;10.18;5.65;;;17.40;97.50;;;;;;5012498;28;20381;-66
2022/05/27 04:37:48;;;;;;;9.27;6.00;;;17.50;97.60;;;;;;5010238;28;20041;-67
2022/05/27 04:40:13;;;;;;;7.22;5.95;;;17.50;97.60;;;;;;5006214;28;20026;-66
2022/05/27 04:42:39;;;;;;;6.85;5.55;;;17.50;97.60;;;;;;5009818;28;20026;-66
2022/05/27 04:45:05;;;;;;;7.68;5.40;;;17.50;97.60;;;;;;4990559;28;20030;-66
2022/05/27 04:47:31;;;;;;;8.00;5.78;;;17.50;97.60;;;;;;4991793;28;20034;-66
2022/05/27 04:49:58;;;;;;;7.72;5.70;;;17.50;97.70;;;;;;5011065;28;20533;-67
2022/05/27 04:52:29;;;;;;;9.38;5.90;;;17.50;97.60;;;;;;5011985;28;20033;-67
2022/05/27 04:54:57;;;;;;;8.05;5.57;;;17.50;97.60;;;;;;5002476;28;20027;-67
2022/05/27 04:57:32;;;;;;;7.45;6.03;;;17.60;97.60;;;;;;5006132;28;20030;-67
2022/05/27 04:59:59;;;;;;;9.55;6.38;;;17.60;97.60;;;;;;5006452;28;20073;-65
2022/05/27 05:02:25;;;;;;;9.18;6.22;;;17.60;97.60;;;;;;4992420;28;20025;-66
2022/05/27 05:04:51;;;;;;;9.35;6.18;;;17.60;97.60;;;;;;5008637;28;20042;-67
2022/05/27 05:07:21;;;;;;;8.02;5.70;;;17.60;97.60;;;;;;5011722;28;20026;-66
2022/05/27 05:09:46;;;;;;;7.68;5.35;;;17.60;97.50;;;;;;5003773;28;20069;-66
2022/05/27 05:12:13;;;;;;;11.43;5.80;;;17.60;97.50;;;;;;4991849;28;20030;-66
2022/05/27 05:14:39;;;;;;;7.47;5.95;;;17.60;97.50;;;;;;4992575;28;20073;-66
2022/05/27 05:17:05;;;;;;;11.73;6.25;;;17.60;97.60;;;;;;4992018;28;20034;-66
2022/05/27 05:19:31;;;;;;;9.77;6.32;;;17.60;97.60;;;;;;5007486;28;20029;-66
2022/05/27 05:21:57;;;;;;;8.65;6.07;;;17.60;97.70;;;;;;5011457;28;20036;-67
2022/05/27 05:24:23;;;;;;;7.05;5.68;;;17.60;97.70;;;;;;4996864;28;20041;-66
2022/05/27 05:26:49;;;;;;;9.65;6.03;;;17.60;97.80;;;;;;4991970;28;20471;-65
2022/05/27 05:29:14;;;;;;;8.23;5.65;;;17.60;97.80;;;;;;5005041;28;20032;-65
2022/05/27 05:31:39;;;;;;;7.20;5.38;;;17.60;97.80;;;;;;5000137;28;20122;-66
2022/05/27 05:34:05;;;;;;;6.50;5.20;;;17.60;97.80;;;;;;5003821;28;20018;-66
2022/05/27 05:36:31;;;;;;;12.48;6.40;;;17.50;97.80;;;;;;4998475;28;20026;-66
2022/05/27 05:38:56;;;;;;;8.48;5.43;;;17.60;97.80;;;;;;5002285;28;20026;-68
2022/05/27 05:41:27;;;;;;;9.90;5.13;;;17.50;97.70;;;;;;4997495;28;20042;-67
2022/05/27 05:43:53;;;;;;;5.85;3.90;;;17.50;97.60;;;;;;4998646;28;20149;-68
2022/05/27 05:46:19;;;;;;;5.43;3.88;;;17.50;97.40;;;;;;5005340;28;20077;-68
2022/05/27 05:48:44;;;;;;;6.07;3.88;;;17.50;97.30;;;;;;5001972;28;20049;-68
2022/05/27 05:51:10;;;;;;;6.07;3.00;;;17.40;97.10;;;;;;5018140;28;20547;-68
2022/05/27 05:53:35;;;;;;;5.38;3.40;;;17.40;97.10;;;;;;5010621;28;20542;-68
2022/05/27 05:56:01;;;;;;;7.15;3.05;;;17.40;97.10;;;;;;5011728;28;20045;-69
2022/05/27 05:58:26;;;;;;;4.28;2.65;;;17.40;97.00;;;;;;5015564;28;20014;-68
2022/05/27 06:00:52;;;;;;;7.55;3.22;;;17.40;96.90;;;;;;5023168;28;20121;-69
2022/05/27 06:03:17;;;;;;;4.47;3.00;;;17.40;96.70;;;;;;5016083;28;20417;-69
2022/05/27 06:05:43;;;;;;;6.32;2.97;;;17.40;96.60;;;;;;5014598;28;20042;-69
2022/05/27 06:08:10;;;;;;;3.50;2.30;;;17.40;96.50;;;;;;5016747;28;20018;-69
2022/05/27 06:10:36;;;;;;;4.82;2.40;;;17.50;96.20;;;;;;5006517;28;20184;-69
2022/05/27 06:13:01;;;;;;;6.70;2.67;;;17.50;96.10;;;;;;5019906;28;20050;-69
2022/05/27 06:15:27;;;;;;;7.70;3.30;;;17.50;96.10;;;;;;5004458;28;20096;-68
2022/05/27 06:17:52;;;;;;;5.63;2.67;;;17.50;96.00;;;;;;5025167;28;20489;-69
2022/05/27 06:20:18;;;;;;;4.47;2.58;;;17.50;96.10;;;;;;5012823;28;20060;-68
2022/05/27 06:22:43;;;;;;;5.60;2.97;;;17.50;96.20;;;;;;5012714;28;20026;-67
2022/05/27 06:25:10;;;;;;;5.68;2.60;;;17.50;96.20;;;;;;5014668;28;20481;-68
2022/05/27 06:27:36;;;;;;;8.27;2.60;;;17.50;96.20;;;;;;5021665;28;20026;-67
2022/05/27 06:35:24;;;;;;;4.88;2.67;;;17.70;96.30;;;;;;5021872;28;20041;-68
2022/05/27 06:37:49;;;;;;;7.22;2.92;;;17.70;96.20;;;;;;5019485;28;20319;-68
2022/05/27 06:40:16;;;;;;;3.67;2.67;;;17.70;96.10;;;;;;5016659;28;20100;-68
2022/05/27 06:42:42;;;;;;;6.72;2.88;;;17.70;96.00;;;;;;5028239;28;20022;-68
2022/05/27 06:45:10;;;;;;;5.32;2.85;;;17.80;96.10;;;;;;5018041;28;20033;-68
2022/05/27 06:47:36;;;;;;;6.93;3.22;;;17.80;96.10;;;;;;5029565;28;20037;-68
2022/05/27 06:50:02;;;;;;;6.38;2.83;;;17.90;95.80;;;;;;5013053;28;20025;-68
2022/05/27 06:52:28;;;;;;;6.10;2.63;;;17.90;95.70;;;;;;5005876;28;20033;-69
2022/05/27 06:54:53;;;;;;;4.68;2.40;;;18.00;95.40;;;;;;4999310;28;20030;-68
2022/05/27 06:57:19;;;;;;;7.45;3.65;;;18.00;95.20;;;;;;5022652;28;20022;-68
2022/05/27 06:59:45;;;;;;;5.47;2.80;;;18.00;95.20;;;;;;4993711;28;20030;-68
2022/05/27 07:02:11;;;;;;;4.07;2.75;;;18.10;95.20;;;;;;4995933;28;20034;-68
2022/05/27 07:04:36;;;;;;;5.20;2.67;;;18.10;95.00;;;;;;5010028;28;20030;-68
2022/05/27 07:07:04;;;;;;;6.15;2.40;;;18.20;94.80;;;;;;5009526;28;20061;-68
2022/05/27 07:09:35;;;;;;;6.25;2.60;;;18.20;94.80;;;;;;4997163;28;20420;-69
2022/05/27 07:12:02;;;;;;;3.67;2.60;;;18.30;94.80;;;;;;5016378;28;20044;-69
2022/05/27 07:14:28;;;;;;;3.85;2.50;;;18.30;94.50;;;;;;5002472;28;20117;-68
2022/05/27 07:16:53;;;;;;;7.63;2.58;;;18.40;94.10;;;;;;5008144;28;20434;-68
2022/05/27 07:19:19;;;;;;;11.82;2.63;;;18.40;93.60;;;;;;5002515;28;20557;-68
2022/05/27 07:21:46;;;;;;;4.55;2.35;;;18.40;93.50;;;;;;4997298;28;20026;-69
2022/05/27 07:24:14;;;;;;;5.13;2.70;;;18.50;93.60;;;;;;5012131;28;20485;-69
2022/05/27 07:26:41;;;;;;;5.40;2.38;;;18.50;93.20;;;;;;4998038;28;20064;-69
2022/05/27 07:29:10;;;;;;;4.68;2.20;;;18.50;93.00;;;;;;5009897;28;20073;-71
2022/05/27 07:31:37;;;;;;;3.53;2.25;;;18.50;92.80;;;;;;5012286;28;20030;-69
2022/05/27 07:34:04;;;;;;;5.70;2.40;;;18.60;93.10;;;;;;5010555;28;20085;-70
2022/05/27 07:36:30;;;;;;;4.63;2.00;;;18.70;93.10;;;;;;5011967;28;20038;-70
2022/05/27 07:38:59;;;;;;;4.75;2.40;;;18.80;92.60;;;;;;5001150;28;20031;-69
2022/05/27 07:41:29;;;;;;;5.32;2.33;;;18.90;92.10;;;;;;5014385;28;20025;-70
2022/05/27 07:43:55;;;;;;;7.10;2.78;;;18.90;91.80;;;;;;5010390;28;20068;-69
2022/05/27 07:46:25;;;;;;;3.33;2.13;;;18.90;91.20;;;;;;5029574;28;20497;-70
2022/05/27 07:48:51;;;;;;;5.22;1.90;;;18.90;90.50;;;;;;5015842;28;20022;-70
2022/05/27 07:51:17;;;;;;;4.20;2.05;;;19.00;90.00;;;;;;5000916;28;20493;-71
2022/05/27 07:53:45;;;;;;;5.15;2.40;;;19.00;89.10;;;;;;5016059;28;20563;-69
2022/05/27 07:56:11;;;;;;;4.78;2.45;;;19.00;88.70;;;;;;5007161;28;20117;-69
2022/05/27 07:58:37;;;;;;;4.07;2.00;;;19.10;87.70;;;;;;5005029;28;20038;-69
2022/05/27 08:01:04;;;;;;;9.95;2.70;;;19.10;84.60;;;;;;5012341;28;20030;-69
2022/05/27 08:03:30;;;;;;;5.60;2.17;;;19.00;83.20;;;;;;5012507;28;20030;-69
2022/05/27 08:05:57;;;;;;;5.15;2.22;;;19.00;83.40;;;;;;5011182;28;20390;-69
2022/05/27 08:08:23;;;;;;;4.55;2.20;;;19.00;83.50;;;;;;5014403;28;20026;-69
2022/05/27 08:10:48;;;;;;;5.32;2.00;;;19.00;82.80;;;;;;5007759;28;20042;-68
2022/05/27 08:13:14;;;;;;;4.85;2.05;;;18.90;80.30;;;;;;5008951;28;20022;-69
2022/05/27 08:15:40;;;;;;;5.13;1.88;;;18.70;79.00;;;;;;5002161;28;20062;-69
2022/05/27 08:18:06;;;;;;;4.55;2.03;;;18.60;78.30;;;;;;5009965;28;20022;-69
2022/05/27 08:20:33;;;;;;;8.25;2.17;;;18.50;78.60;;;;;;5014004;28;20409;-68
2022/05/27 08:23:00;;;;;;;5.32;1.73;;;18.50;78.80;;;;;;5007691;28;20026;-68
2022/05/27 08:25:27;;;;;;;7.85;2.58;;;18.50;77.80;;;;;;5011761;28;20553;-68
2022/05/27 08:27:54;;;;;;;5.63;1.90;;;18.50;77.40;;;;;;5004120;28;20389;-68
2022/05/27 08:30:23;;;;;;;7.07;2.42;;;18.50;78.70;;;;;;5006374;28;20121;-69
2022/05/27 08:32:48;;;;;;;3.97;1.80;;;18.50;77.40;;;;;;5010401;28;20034;-68
2022/05/27 08:38:01;;;;;;;4.82;2.08;;;18.60;75.00;;;;;;5006195;28;20448;-69
2022/05/27 08:40:42;;;;;;;5.95;2.10;;;18.60;74.10;;;;;;5007655;28;20409;-69
2022/05/27 08:43:36;;;;;;;5.65;2.22;;;18.60;72.30;;;;;;5009621;28;20018;-69
2022/05/27 08:46:21;;;;;;;7.72;2.53;;;18.50;73.00;;;;;;5005303;28;20400;-69
2022/05/27 08:48:52;;;;;;;5.60;2.20;;;18.50;73.60;;;;;;5007215;28;20022;-70
2022/05/27 08:51:30;;;;;;;4.65;2.17;;;18.50;74.10;;;;;;5012737;28;20411;-68
2022/05/27 08:54:02;;;;;;;5.13;1.67;;;18.60;74.50;;;;;;5009369;28;20026;-70
2022/05/27 08:59:40;;;;;;;5.78;2.22;;;18.60;74.00;;;;;;5012357;28;20029;-70
2022/05/27 09:02:31;;;;;;;5.07;1.92;;;18.60;73.00;;;;;;5025087;28;20782;-69
2022/05/27 09:05:21;;;;;;;4.30;1.90;;;18.50;71.80;;;;;;5014077;28;20105;-70
2022/05/27 09:07:53;;;;;;;5.50;2.08;;;18.50;71.80;;;;;;5017289;28;23280;-70
2022/05/27 09:10:24;;;;;;;5.90;1.80;;;18.40;71.70;;;;;;5009741;28;20046;-71
2022/05/27 09:13:05;;;;;;;4.03;1.98;;;18.40;71.30;;;;;;5011003;28;20054;-70
2022/05/27 09:15:54;;;;;;;6.07;1.98;;;18.50;71.80;;;;;;5009939;28;20517;-71
2022/05/27 09:18:40;;;;;;;4.38;1.70;;;18.50;72.50;;;;;;5007929;28;20026;-69
2022/05/27 09:21:30;;;;;;;4.47;1.95;;;18.60;71.10;;;;;;4995443;28;20558;-69
2022/05/27 09:24:32;;;;;;;6.85;2.45;;;18.70;68.50;;;;;;5006777;28;20075;-69
2022/05/27 09:27:24;;;;;;;4.82;2.03;;;18.70;68.80;;;;;;5007657;28;20048;-70
2022/05/27 09:30:19;;;;;;;4.70;1.90;;;18.80;68.40;;;;;;5009543;28;20030;-70
2022/05/27 09:32:58;;;;;;;5.28;2.40;;;18.90;67.20;;;;;;5015950;28;21837;-69
2022/05/27 09:35:45;;;;;;;5.05;2.75;;;18.90;67.70;;;;;;5008322;28;20034;-67
2022/05/27 09:38:27;;;;;;;4.65;2.08;;;18.90;66.30;;;;;;5013084;28;20589;-68
2022/05/27 09:40:56;;;;;;;7.05;2.08;;;19.00;66.30;;;;;;5018467;28;20102;-68
2022/05/27 09:43:45;;;;;;;9.60;2.30;;;19.10;66.70;;;;;;5014741;28;20038;-68
2022/05/27 09:46:15;;;;;;;3.70;1.73;;;19.10;66.20;;;;;;5024611;28;20041;-69
2022/05/27 09:48:40;;;;;;;4.75;2.42;;;19.10;66.10;;;;;;5029414;28;20105;-69
2022/05/27 09:51:09;;;;;;;5.03;2.05;;;19.10;66.40;;;;;;5033718;28;20034;-69
2022/05/27 09:53:45;;;;;;;4.40;1.88;;;19.00;65.80;;;;;;5036188;28;20045;-69
2022/05/27 09:56:13;;;;;;;4.40;2.05;;;18.90;66.50;;;;;;5032685;28;20045;-69
2022/05/27 09:58:41;;;;;;;5.68;2.53;;;18.90;65.80;;;;;;5024022;28;20378;-69
2022/05/27 10:01:22;;;;;;;5.07;2.08;;;18.90;66.50;;;;;;5038492;28;20056;-69
2022/05/27 10:04:02;;;;;;;6.07;2.40;;;18.90;64.70;;;;;;5024216;28;20040;-70
2022/05/27 10:06:32;;;;;;;6.43;2.83;;;18.90;66.40;;;;;;5019315;28;20124;-69
2022/05/27 10:08:59;;;;;;;5.43;2.25;;;18.80;65.90;;;;;;5011690;28;20113;-69
2022/05/27 10:11:31;;;;;;;6.53;2.58;;;18.80;65.30;;;;;;5002483;28;20041;-69
2022/05/27 10:14:05;;;;;;;6.10;2.00;;;18.80;65.80;;;;;;4998811;28;20033;-69
2022/05/27 10:16:33;;;;;;;5.80;2.10;;;18.90;65.40;;;;;;5015433;28;20050;-69
2022/05/27 10:19:13;;;;;;;6.25;2.40;;;18.90;64.20;;;;;;5014460;28;20064;-69
2022/05/27 10:21:59;;;;;;;7.78;2.13;;;18.90;63.80;;;;;;5015774;28;20026;-69
2022/05/27 10:24:26;;;;;;;6.63;2.08;;;19.10;64.30;;;;;;4998391;28;20026;-70
2022/05/27 10:27:12;;;;;;;4.88;2.00;;;19.10;64.90;;;;;;5013351;28;20034;-70
2022/05/27 10:29:52;;;;;;;5.85;2.28;;;19.30;64.50;;;;;;5020923;28;20022;-70
2022/05/27 10:32:37;;;;;;;4.72;1.80;;;19.40;64.40;;;;;;5004467;28;20072;-70
2022/05/27 10:35:07;;;;;;;5.47;2.25;;;19.50;64.40;;;;;;5018223;28;20038;-70
2022/05/27 10:38:09;;;;;;;5.57;2.17;;;19.50;64.30;;;;;;5015431;28;20047;-70
2022/05/27 10:40:40;;;;;;;5.00;2.30;;;19.70;64.40;;;;;;5021288;28;20021;-70
2022/05/27 10:43:12;;;;;;;6.50;2.38;;;19.80;63.30;;;;;;5021793;28;20033;-69
2022/05/27 10:45:52;;;;;;;7.78;1.90;;;19.80;62.60;;;;;;5017782;28;20032;-69
2022/05/27 10:48:45;;;;;;;6.22;1.90;;;19.80;62.90;;;;;;5021025;28;20029;-70
2022/05/27 10:51:30;;;;;;;6.47;2.20;;;19.80;63.10;;;;;;5026863;28;20034;-69
2022/05/27 10:53:59;;;;;;;;;;;19.90;63.50;;;;;;5030875;28;20029;-69
2022/05/27 10:56:39;;;;;;;9.10;2.10;;;19.80;62.80;;;;;;5034187;28;19905;-69
2022/05/27 11:02:43;;;;;;;6.10;2.30;;;19.70;63.00;;;;;;4991359;28;20034;-71
2022/05/27 11:05:19;;;;;;;6.75;2.25;;;19.70;62.80;;;;;;5005112;28;20044;-69
2022/05/27 11:08:21;;;;;;;6.47;2.05;;;19.70;62.70;;;;;;5019851;28;20104;-68
2022/05/27 11:11:04;;;;;;;6.68;2.45;;;19.70;61.70;;;;;;4994772;28;20046;-69
2022/05/27 11:17:14;;;;;;;6.70;2.90;;;19.80;61.40;;;;;;4998304;28;20044;-70
2022/05/27 11:19:55;;;;;;;5.78;2.25;;;19.80;61.20;;;;;;5020745;28;20079;-69
2022/05/27 11:22:37;;;;;;;4.82;1.98;;;19.70;60.70;;;;;;5007804;28;20042;-70
2022/05/27 11:25:31;;;;;;;8.55;2.30;;;19.80;61.30;;;;;;5012341;28;20034;-72
2022/05/27 11:28:12;;;;;;;4.83;2.30;;;19.90;60.70;;;;;;5012256;28;20093;-69
2022/05/27 11:30:59;;;;;;;6.78;2.13;;;19.90;59.40;;;;;;5007122;28;20384;-69
2022/05/27 11:33:33;;;;;;;8.20;2.60;;;19.80;59.40;;;;;;5012921;28;20037;-70
2022/05/27 11:36:27;;;;;;;5.80;2.37;;;19.80;59.80;;;;;;5017661;28;20033;-68
2022/05/27 11:39:04;;;;;;;5.53;2.45;;;19.90;59.60;;;;;;5007614;28;20049;-68
2022/05/27 11:41:52;;;;;;;4.90;1.85;;;19.90;59.70;;;;;;5014356;28;20026;-67
2022/05/27 11:44:48;;;;;;;5.00;2.00;;;19.90;59.70;;;;;;5005410;28;20034;-69
2022/05/27 11:47:20;;;;;;;5.78;2.13;;;20.00;59.90;;;;;;5024848;28;20438;-68
2022/05/27 11:49:56;;;;;;;7.03;2.40;;;20.10;60.50;;;;;;5009932;28;20030;-69
2022/05/27 11:52:41;;;;;;;4.68;2.30;;;20.10;60.30;;;;;;5003086;28;20112;-69
2022/05/27 11:55:32;;;;;;;3.67;1.70;;;20.10;59.90;;;;;;5010235;28;20110;-69
2022/05/27 11:58:09;;;;;;;6.32;2.22;;;20.00;59.80;;;;;;5010314;28;20034;-68
2022/05/27 12:00:48;;;;;;;7.43;2.78;;;19.90;61.20;;;;;;5011272;28;20025;-70
2022/05/27 12:03:29;;;;;;;7.43;2.70;;;19.70;64.60;;;;;;5008378;28;20036;-69
2022/05/27 12:06:01;;;;;;;7.45;2.17;;;19.50;66.30;;;;;;5006118;28;20042;-68
2022/05/27 12:08:31;;;;;;;10.65;3.13;;;19.20;67.90;;;;;;5009919;28;20024;-70
2022/05/27 12:11:08;;;;;;;5.30;2.03;;;18.80;69.60;;;;;;5021171;28;20034;-69
2022/05/27 12:13:52;;;;;;;4.78;2.35;;;18.50;71.20;;;;;;5005799;28;20080;-69
2022/05/27 12:16:23;;;;;;;6.22;2.60;;;18.40;72.40;;;;;;5005148;28;20030;-69
2022/05/27 12:18:58;;;;;;;7.95;2.97;;;18.30;72.80;;;;;;5012551;28;20033;-68
2022/05/27 12:21:28;;;;;;;7.70;2.63;;;18.30;73.80;;;;;;5026382;28;20033;-69
2022/05/27 12:24:20;;;;;;;5.90;2.40;;;18.30;74.20;;;;;;5008220;28;20382;-69
2022/05/27 12:26:49;;;;;;;5.97;2.00;;;18.40;74.50;;;;;;5017297;28;20037;-68
2022/05/27 12:29:15;;;;;;;6.72;2.78;;;18.40;73.80;;;;;;5012918;28;20373;-69
2022/05/27 12:31:41;;;;;;;6.90;2.63;;;18.40;73.40;;;;;;5018499;28;20257;-68
2022/05/27 12:34:25;;;;;;;7.07;2.17;;;18.50;72.90;;;;;;5010376;28;20440;-68
2022/05/27 12:36:58;;;;;;;5.13;2.50;;;18.60;72.30;;;;;;5011400;28;20021;-68
2022/05/27 12:39:28;;;;;;;10.05;2.25;;;18.70;70.30;;;;;;5009628;28;21655;-69
2022/05/27 12:42:09;;;;;;;5.80;2.80;;;18.90;69.80;;;;;;5012087;28;20026;-69
2022/05/27 12:44:35;;;;;;;5.80;1.90;;;19.00;69.30;;;;;;5011335;28;20040;-68
2022/05/27 12:47:04;;;;;;;7.60;2.40;;;19.10;67.00;;;;;;5012274;28;20033;-68
2022/05/27 12:49:38;;;;;;;9.55;2.13;;;19.20;66.20;;;;;;5004832;28;20026;-68
2022/05/27 12:52:08;;;;;;;9.30;2.10;;;19.30;66.20;;;;;;5010931;28;20060;-68
2022/05/27 12:54:42;;;;;;;4.80;2.10;;;19.40;65.10;;;;;;5020163;28;20167;-67
2022/05/27 13:03:40;;;;;;;4.85;1.90;;;19.20;64.60;;;;;;5000555;28;20026;-69
2022/05/27 13:06:17;;;;;;;6.28;2.30;;;19.20;63.80;;;;;;5010946;28;20061;-68
2022/05/27 13:09:04;;;;;;;6.30;2.55;;;19.20;63.40;;;;;;5005464;28;20087;-68
2022/05/27 13:11:34;;;;;;;5.35;2.08;;;19.10;63.60;;;;;;5005628;28;20042;-68
2022/05/27 13:14:19;;;;;;;7.35;2.38;;;19.20;63.80;;;;;;4999470;28;20053;-68
2022/05/27 13:16:51;;;;;;;6.55;1.80;;;19.30;62.60;;;;;;5010815;28;20421;-69
2022/05/27 13:19:33;;;;;;;8.20;2.88;;;19.50;63.10;;;;;;4997115;28;20042;-68
2022/05/27 13:22:03;;;;;;;4.97;2.28;;;19.60;62.50;;;;;;5023380;28;20052;-68
2022/05/27 13:24:38;;;;;;;3.80;2.13;;;19.80;62.40;;;;;;5002515;28;20048;-67
2022/05/27 13:27:27;;;;;;;6.63;2.70;;;19.90;60.90;;;;;;4998770;28;20030;-68
2022/05/27 13:29:53;;;;;;;7.43;2.75;;;20.00;60.80;;;;;;5009355;28;20052;-67
2022/05/27 13:32:26;;;;;;;5.63;2.20;;;20.10;58.80;;;;;;5026206;28;20481;-68
2022/05/27 13:34:54;;;;;;;3.03;1.63;;;20.30;59.40;;;;;;5010334;28;20056;-68
2022/05/27 13:37:38;;;;;;;10.73;2.17;;;20.40;58.30;;;;;;5016873;28;20034;-68
2022/05/27 13:40:15;;;;;;;5.47;2.00;;;20.60;59.00;;;;;;5015134;28;20036;-68
2022/05/27 13:42:51;;;;;;;4.80;1.85;;;20.70;57.70;;;;;;4991681;28;20379;-68
2022/05/27 13:45:41;;;;;;;4.68;1.90;;;20.60;56.20;;;;;;5019045;28;20037;-67